sensor_id;sensor_type;location;lat;lon;timestamp;P1;durP1;ratioP1;P2;durP2;ratioP2
69081;SDS011;69029;51.986;5.760;2023-05-23T00:01:32;10.80;;;5.72;;
69081;SDS011;69029;51.986;5.760;2023-05-23T00:04:01;11.70;;;5.30;;
69081;SDS011;69029;51.986;5.760;2023-05-23T00:06:27;10.27;;;5.47;;
69081;SDS011;69029;51.986;5.760;2023-05-23T00:08:52;13.38;;;5.50;;
69081;SDS011;69029;51.986;5.760;2023-05-23T00:11:18;9.63;;;5.40;;
69081;SDS011;69029;51.986;5.760;2023-05-23T00:13:45;16.83;;;5.82;;
69081;SDS011;69029;51.986;5.760;2023-05-23T00:16:10;12.20;;;6.30;;
69081;SDS011;69029;51.986;5.760;2023-05-23T00:18:36;13.05;;;6.20;;
69081;SDS011;69029;51.986;5.760;2023-05-23T00:21:06;11.32;;;6.25;;
69081;SDS011;69029;51.986;5.760;2023-05-23T00:23:33;13.27;;;6.30;;
69081;SDS011;69029;51.986;5.760;2023-05-23T00:25:59;12.40;;;5.93;;
69081;SDS011;69029;51.986;5.760;2023-05-23T00:28:25;11.95;;;5.88;;
69081;SDS011;69029;51.986;5.760;2023-05-23T00:30:50;13.32;;;6.00;;
69081;SDS011;69029;51.986;5.760;2023-05-23T00:33:16;13.45;;;6.32;;
69081;SDS011;69029;51.986;5.760;2023-05-23T00:35:45;16.05;;;6.28;;
69081;SDS011;69029;51.986;5.760;2023-05-23T00:38:12;12.95;;;6.53;;
69081;SDS011;69029;51.986;5.760;2023-05-23T00:40:38;13.18;;;6.75;;
69081;SDS011;69029;51.986;5.760;2023-05-23T00:43:04;11.82;;;6.93;;
69081;SDS011;69029;51.986;5.760;2023-05-23T00:45:29;12.88;;;6.63;;
69081;SDS011;69029;51.986;5.760;2023-05-23T00:47:55;16.35;;;6.97;;
69081;SDS011;69029;51.986;5.760;2023-05-23T00:50:23;12.75;;;7.30;;
69081;SDS011;69029;51.986;5.760;2023-05-23T00:52:49;15.50;;;6.63;;
69081;SDS011;69029;51.986;5.760;2023-05-23T00:55:15;17.23;;;6.68;;
69081;SDS011;69029;51.986;5.760;2023-05-23T00:57:40;22.00;;;7.20;;
69081;SDS011;69029;51.986;5.760;2023-05-23T01:00:08;13.07;;;6.35;;
69081;SDS011;69029;51.986;5.760;2023-05-23T01:02:37;14.25;;;6.32;;
69081;SDS011;69029;51.986;5.760;2023-05-23T01:05:09;12.57;;;5.90;;
69081;SDS011;69029;51.986;5.760;2023-05-23T01:07:41;12.75;;;5.82;;
69081;SDS011;69029;51.986;5.760;2023-05-23T01:10:13;13.25;;;5.85;;
69081;SDS011;69029;51.986;5.760;2023-05-23T01:13:01;11.00;;;5.05;;
69081;SDS011;69029;51.986;5.760;2023-05-23T01:18:38;10.55;;;5.35;;
69081;SDS011;69029;51.986;5.760;2023-05-23T01:21:10;9.18;;;5.22;;
69081;SDS011;69029;51.986;5.760;2023-05-23T01:29:14;12.50;;;5.85;;
69081;SDS011;69029;51.986;5.760;2023-05-23T01:31:52;8.67;;;5.07;;
69081;SDS011;69029;51.986;5.760;2023-05-23T01:34:20;9.35;;;5.72;;
69081;SDS011;69029;51.986;5.760;2023-05-23T01:36:48;9.43;;;6.15;;
69081;SDS011;69029;51.986;5.760;2023-05-23T01:39:17;12.07;;;5.45;;
69081;SDS011;69029;51.986;5.760;2023-05-23T01:41:43;9.40;;;5.25;;
69081;SDS011;69029;51.986;5.760;2023-05-23T01:44:09;8.48;;;5.20;;
69081;SDS011;69029;51.986;5.760;2023-05-23T01:46:35;11.52;;;5.90;;
69081;SDS011;69029;51.986;5.760;2023-05-23T01:49:03;8.88;;;5.28;;
69081;SDS011;69029;51.986;5.760;2023-05-23T01:51:31;10.23;;;5.28;;
69081;SDS011;69029;51.986;5.760;2023-05-23T01:53:58;10.80;;;6.03;;
69081;SDS011;69029;51.986;5.760;2023-05-23T01:56:24;10.48;;;5.38;;
69081;SDS011;69029;51.986;5.760;2023-05-23T01:58:52;10.43;;;5.40;;
69081;SDS011;69029;51.986;5.760;2023-05-23T02:01:18;8.68;;;5.63;;
69081;SDS011;69029;51.986;5.760;2023-05-23T02:03:44;9.85;;;5.25;;
69081;SDS011;69029;51.986;5.760;2023-05-23T02:06:10;7.65;;;5.32;;
69081;SDS011;69029;51.986;5.760;2023-05-23T02:08:36;13.65;;;5.35;;
69081;SDS011;69029;51.986;5.760;2023-05-23T02:11:01;9.38;;;5.07;;
69081;SDS011;69029;51.986;5.760;2023-05-23T02:13:27;12.23;;;6.32;;
69081;SDS011;69029;51.986;5.760;2023-05-23T02:15:53;10.35;;;5.40;;
69081;SDS011;69029;51.986;5.760;2023-05-23T02:18:19;11.93;;;5.72;;
69081;SDS011;69029;51.986;5.760;2023-05-23T02:20:45;14.45;;;5.97;;
69081;SDS011;69029;51.986;5.760;2023-05-23T02:23:10;10.45;;;5.20;;
69081;SDS011;69029;51.986;5.760;2023-05-23T02:25:36;12.38;;;5.93;;
69081;SDS011;69029;51.986;5.760;2023-05-23T02:28:02;11.90;;;6.25;;
69081;SDS011;69029;51.986;5.760;2023-05-23T02:30:27;11.85;;;5.85;;
69081;SDS011;69029;51.986;5.760;2023-05-23T02:32:53;15.45;;;6.68;;
69081;SDS011;69029;51.986;5.760;2023-05-23T02:35:19;14.77;;;6.70;;
69081;SDS011;69029;51.986;5.760;2023-05-23T02:37:44;15.07;;;6.93;;
69081;SDS011;69029;51.986;5.760;2023-05-23T02:40:10;17.70;;;6.07;;
69081;SDS011;69029;51.986;5.760;2023-05-23T02:42:36;16.80;;;7.28;;
69081;SDS011;69029;51.986;5.760;2023-05-23T02:45:01;16.85;;;6.57;;
69081;SDS011;69029;51.986;5.760;2023-05-23T02:47:27;17.23;;;6.57;;
69081;SDS011;69029;51.986;5.760;2023-05-23T02:49:53;16.77;;;6.72;;
69081;SDS011;69029;51.986;5.760;2023-05-23T02:52:18;21.23;;;6.03;;
69081;SDS011;69029;51.986;5.760;2023-05-23T02:54:44;12.68;;;5.50;;
69081;SDS011;69029;51.986;5.760;2023-05-23T02:57:10;15.15;;;6.60;;
69081;SDS011;69029;51.986;5.760;2023-05-23T02:59:36;15.88;;;6.30;;
69081;SDS011;69029;51.986;5.760;2023-05-23T03:02:01;14.93;;;6.28;;
69081;SDS011;69029;51.986;5.760;2023-05-23T03:04:27;12.23;;;6.43;;
69081;SDS011;69029;51.986;5.760;2023-05-23T03:06:53;11.93;;;5.97;;
69081;SDS011;69029;51.986;5.760;2023-05-23T03:09:19;17.25;;;6.05;;
69081;SDS011;69029;51.986;5.760;2023-05-23T03:11:45;17.15;;;5.32;;
69081;SDS011;69029;51.986;5.760;2023-05-23T03:14:11;11.13;;;5.22;;
69081;SDS011;69029;51.986;5.760;2023-05-23T03:16:36;12.52;;;5.32;;
69081;SDS011;69029;51.986;5.760;2023-05-23T03:19:02;13.02;;;5.07;;
69081;SDS011;69029;51.986;5.760;2023-05-23T03:21:28;8.77;;;4.95;;
69081;SDS011;69029;51.986;5.760;2023-05-23T03:23:55;12.23;;;4.72;;
69081;SDS011;69029;51.986;5.760;2023-05-23T03:26:21;8.07;;;4.50;;
69081;SDS011;69029;51.986;5.760;2023-05-23T03:28:48;8.63;;;4.47;;
69081;SDS011;69029;51.986;5.760;2023-05-23T03:31:13;12.38;;;4.75;;
69081;SDS011;69029;51.986;5.760;2023-05-23T03:33:39;9.23;;;4.60;;
69081;SDS011;69029;51.986;5.760;2023-05-23T03:36:05;13.23;;;5.03;;
69081;SDS011;69029;51.986;5.760;2023-05-23T03:38:30;10.80;;;5.13;;
69081;SDS011;69029;51.986;5.760;2023-05-23T03:40:56;12.32;;;5.03;;
69081;SDS011;69029;51.986;5.760;2023-05-23T03:43:22;10.13;;;4.50;;
69081;SDS011;69029;51.986;5.760;2023-05-23T03:45:47;10.77;;;4.75;;
69081;SDS011;69029;51.986;5.760;2023-05-23T03:48:13;9.30;;;4.70;;
69081;SDS011;69029;51.986;5.760;2023-05-23T03:50:39;12.85;;;5.07;;
69081;SDS011;69029;51.986;5.760;2023-05-23T03:53:04;10.02;;;5.05;;
69081;SDS011;69029;51.986;5.760;2023-05-23T03:55:31;12.23;;;4.97;;
69081;SDS011;69029;51.986;5.760;2023-05-23T03:57:56;8.85;;;4.70;;
69081;SDS011;69029;51.986;5.760;2023-05-23T04:00:22;10.00;;;4.63;;
69081;SDS011;69029;51.986;5.760;2023-05-23T04:02:48;15.43;;;5.28;;
69081;SDS011;69029;51.986;5.760;2023-05-23T04:05:15;11.38;;;5.10;;
69081;SDS011;69029;51.986;5.760;2023-05-23T04:07:41;11.27;;;5.43;;
69081;SDS011;69029;51.986;5.760;2023-05-23T04:10:08;16.65;;;5.75;;
69081;SDS011;69029;51.986;5.760;2023-05-23T04:12:34;16.33;;;4.90;;
69081;SDS011;69029;51.986;5.760;2023-05-23T04:15:00;12.32;;;5.28;;
69081;SDS011;69029;51.986;5.760;2023-05-23T04:17:26;13.65;;;5.10;;
69081;SDS011;69029;51.986;5.760;2023-05-23T04:19:53;15.50;;;5.75;;
69081;SDS011;69029;51.986;5.760;2023-05-23T04:22:19;20.92;;;5.78;;
69081;SDS011;69029;51.986;5.760;2023-05-23T04:24:44;13.82;;;5.63;;
69081;SDS011;69029;51.986;5.760;2023-05-23T04:27:10;17.70;;;5.30;;
69081;SDS011;69029;51.986;5.760;2023-05-23T04:29:37;19.10;;;5.68;;
69081;SDS011;69029;51.986;5.760;2023-05-23T04:32:03;18.98;;;5.88;;
69081;SDS011;69029;51.986;5.760;2023-05-23T04:34:30;19.00;;;5.97;;
69081;SDS011;69029;51.986;5.760;2023-05-23T04:37:01;18.08;;;6.13;;
69081;SDS011;69029;51.986;5.760;2023-05-23T04:39:27;18.95;;;6.35;;
69081;SDS011;69029;51.986;5.760;2023-05-23T04:41:56;20.92;;;5.90;;
69081;SDS011;69029;51.986;5.760;2023-05-23T04:44:24;17.77;;;6.53;;
69081;SDS011;69029;51.986;5.760;2023-05-23T04:46:54;21.40;;;6.30;;
69081;SDS011;69029;51.986;5.760;2023-05-23T04:49:20;18.55;;;6.47;;
69081;SDS011;69029;51.986;5.760;2023-05-23T04:51:46;20.80;;;6.20;;
69081;SDS011;69029;51.986;5.760;2023-05-23T04:54:12;21.25;;;6.57;;
69081;SDS011;69029;51.986;5.760;2023-05-23T04:56:38;17.13;;;5.82;;
69081;SDS011;69029;51.986;5.760;2023-05-23T04:59:03;21.58;;;5.35;;
69081;SDS011;69029;51.986;5.760;2023-05-23T05:01:29;14.65;;;5.15;;
69081;SDS011;69029;51.986;5.760;2023-05-23T05:03:55;9.32;;;4.55;;
69081;SDS011;69029;51.986;5.760;2023-05-23T05:06:22;10.13;;;4.57;;
69081;SDS011;69029;51.986;5.760;2023-05-23T05:08:47;14.15;;;5.32;;
69081;SDS011;69029;51.986;5.760;2023-05-23T05:11:13;11.13;;;4.13;;
69081;SDS011;69029;51.986;5.760;2023-05-23T05:13:38;13.63;;;4.47;;
69081;SDS011;69029;51.986;5.760;2023-05-23T05:16:04;17.00;;;4.60;;
69081;SDS011;69029;51.986;5.760;2023-05-23T05:18:30;17.17;;;4.60;;
69081;SDS011;69029;51.986;5.760;2023-05-23T05:20:56;20.55;;;4.40;;
69081;SDS011;69029;51.986;5.760;2023-05-23T05:23:23;14.45;;;4.05;;
69081;SDS011;69029;51.986;5.760;2023-05-23T05:25:50;19.33;;;4.53;;
69081;SDS011;69029;51.986;5.760;2023-05-23T05:28:16;11.00;;;3.53;;
69081;SDS011;69029;51.986;5.760;2023-05-23T05:30:41;13.70;;;4.10;;
69081;SDS011;69029;51.986;5.760;2023-05-23T05:33:07;11.55;;;3.83;;
69081;SDS011;69029;51.986;5.760;2023-05-23T05:35:33;14.95;;;3.60;;
69081;SDS011;69029;51.986;5.760;2023-05-23T05:37:59;18.90;;;4.00;;
69081;SDS011;69029;51.986;5.760;2023-05-23T05:40:25;12.48;;;3.72;;
69081;SDS011;69029;51.986;5.760;2023-05-23T05:42:51;11.43;;;3.63;;
69081;SDS011;69029;51.986;5.760;2023-05-23T05:45:16;12.00;;;3.70;;
69081;SDS011;69029;51.986;5.760;2023-05-23T05:47:43;10.50;;;3.40;;
69081;SDS011;69029;51.986;5.760;2023-05-23T05:50:11;12.65;;;3.95;;
69081;SDS011;69029;51.986;5.760;2023-05-23T05:52:37;15.80;;;3.65;;
69081;SDS011;69029;51.986;5.760;2023-05-23T05:55:07;7.85;;;3.38;;
69081;SDS011;69029;51.986;5.760;2023-05-23T05:57:37;10.57;;;3.17;;
69081;SDS011;69029;51.986;5.760;2023-05-23T06:00:10;14.60;;;3.50;;
69081;SDS011;69029;51.986;5.760;2023-05-23T06:02:39;10.73;;;3.55;;
69081;SDS011;69029;51.986;5.760;2023-05-23T06:05:11;10.80;;;2.78;;
69081;SDS011;69029;51.986;5.760;2023-05-23T06:07:39;9.75;;;2.85;;
69081;SDS011;69029;51.986;5.760;2023-05-23T06:10:07;14.85;;;3.50;;
69081;SDS011;69029;51.986;5.760;2023-05-23T06:12:36;9.98;;;3.05;;
69081;SDS011;69029;51.986;5.760;2023-05-23T06:15:02;8.90;;;3.03;;
69081;SDS011;69029;51.986;5.760;2023-05-23T06:17:28;9.27;;;2.88;;
69081;SDS011;69029;51.986;5.760;2023-05-23T06:19:54;14.50;;;3.28;;
69081;SDS011;69029;51.986;5.760;2023-05-23T06:22:19;13.38;;;3.25;;
69081;SDS011;69029;51.986;5.760;2023-05-23T06:24:45;11.65;;;3.00;;
69081;SDS011;69029;51.986;5.760;2023-05-23T06:27:11;10.90;;;3.42;;
69081;SDS011;69029;51.986;5.760;2023-05-23T06:29:37;10.75;;;3.38;;
69081;SDS011;69029;51.986;5.760;2023-05-23T06:32:03;13.57;;;3.42;;
69081;SDS011;69029;51.986;5.760;2023-05-23T06:34:29;11.55;;;3.38;;
69081;SDS011;69029;51.986;5.760;2023-05-23T06:36:54;9.52;;;3.45;;
69081;SDS011;69029;51.986;5.760;2023-05-23T06:39:20;16.08;;;3.65;;
69081;SDS011;69029;51.986;5.760;2023-05-23T06:41:47;10.50;;;3.72;;
69081;SDS011;69029;51.986;5.760;2023-05-23T06:44:13;10.43;;;3.53;;
69081;SDS011;69029;51.986;5.760;2023-05-23T06:46:41;9.30;;;3.40;;
69081;SDS011;69029;51.986;5.760;2023-05-23T06:49:09;16.27;;;3.40;;
69081;SDS011;69029;51.986;5.760;2023-05-23T06:51:34;12.32;;;3.35;;
69081;SDS011;69029;51.986;5.760;2023-05-23T06:54:00;10.10;;;3.65;;
69081;SDS011;69029;51.986;5.760;2023-05-23T06:56:25;15.82;;;3.85;;
69081;SDS011;69029;51.986;5.760;2023-05-23T06:58:51;9.27;;;3.85;;
69081;SDS011;69029;51.986;5.760;2023-05-23T07:01:17;10.18;;;3.88;;
69081;SDS011;69029;51.986;5.760;2023-05-23T07:03:42;9.15;;;3.45;;
69081;SDS011;69029;51.986;5.760;2023-05-23T07:06:09;9.57;;;3.60;;
69081;SDS011;69029;51.986;5.760;2023-05-23T07:08:35;11.75;;;3.15;;
69081;SDS011;69029;51.986;5.760;2023-05-23T07:11:01;7.28;;;3.20;;
69081;SDS011;69029;51.986;5.760;2023-05-23T07:13:26;12.52;;;3.40;;
69081;SDS011;69029;51.986;5.760;2023-05-23T07:15:52;9.25;;;3.30;;
69081;SDS011;69029;51.986;5.760;2023-05-23T07:18:18;9.50;;;3.17;;
69081;SDS011;69029;51.986;5.760;2023-05-23T07:20:44;10.00;;;3.53;;
69081;SDS011;69029;51.986;5.760;2023-05-23T07:23:10;10.93;;;3.50;;
69081;SDS011;69029;51.986;5.760;2023-05-23T07:25:35;9.38;;;3.72;;
69081;SDS011;69029;51.986;5.760;2023-05-23T07:28:01;9.77;;;3.53;;
69081;SDS011;69029;51.986;5.760;2023-05-23T07:30:27;11.35;;;3.70;;
69081;SDS011;69029;51.986;5.760;2023-05-23T07:32:52;11.18;;;3.47;;
69081;SDS011;69029;51.986;5.760;2023-05-23T07:35:19;13.88;;;3.47;;
69081;SDS011;69029;51.986;5.760;2023-05-23T07:37:50;7.53;;;2.70;;
69081;SDS011;69029;51.986;5.760;2023-05-23T07:40:18;9.32;;;2.90;;
69081;SDS011;69029;51.986;5.760;2023-05-23T07:42:45;6.15;;;2.83;;
69081;SDS011;69029;51.986;5.760;2023-05-23T07:45:10;8.93;;;2.72;;
69081;SDS011;69029;51.986;5.760;2023-05-23T07:47:36;6.00;;;2.45;;
69081;SDS011;69029;51.986;5.760;2023-05-23T07:50:02;9.35;;;2.70;;
69081;SDS011;69029;51.986;5.760;2023-05-23T07:52:28;9.75;;;3.20;;
69081;SDS011;69029;51.986;5.760;2023-05-23T07:54:55;7.25;;;2.60;;
69081;SDS011;69029;51.986;5.760;2023-05-23T07:57:21;10.70;;;3.15;;
69081;SDS011;69029;51.986;5.760;2023-05-23T07:59:48;9.40;;;2.75;;
69081;SDS011;69029;51.986;5.760;2023-05-23T08:02:15;10.70;;;2.97;;
69081;SDS011;69029;51.986;5.760;2023-05-23T08:04:40;9.10;;;2.47;;
69081;SDS011;69029;51.986;5.760;2023-05-23T08:07:06;13.35;;;2.83;;
69081;SDS011;69029;51.986;5.760;2023-05-23T08:09:33;7.75;;;2.20;;
69081;SDS011;69029;51.986;5.760;2023-05-23T08:11:59;8.57;;;2.13;;
69081;SDS011;69029;51.986;5.760;2023-05-23T08:14:25;15.20;;;3.08;;
69081;SDS011;69029;51.986;5.760;2023-05-23T08:16:50;10.50;;;2.17;;
69081;SDS011;69029;51.986;5.760;2023-05-23T08:19:16;9.48;;;2.22;;
69081;SDS011;69029;51.986;5.760;2023-05-23T08:21:41;9.05;;;2.05;;
69081;SDS011;69029;51.986;5.760;2023-05-23T08:24:07;7.60;;;2.20;;
69081;SDS011;69029;51.986;5.760;2023-05-23T08:26:33;11.57;;;2.22;;
69081;SDS011;69029;51.986;5.760;2023-05-23T08:29:01;7.28;;;2.15;;
69081;SDS011;69029;51.986;5.760;2023-05-23T08:31:28;12.15;;;2.10;;
69081;SDS011;69029;51.986;5.760;2023-05-23T08:33:54;7.72;;;2.20;;
69081;SDS011;69029;51.986;5.760;2023-05-23T08:36:19;9.07;;;2.10;;
69081;SDS011;69029;51.986;5.760;2023-05-23T08:38:45;11.07;;;2.20;;
69081;SDS011;69029;51.986;5.760;2023-05-23T08:41:18;12.40;;;2.25;;
69081;SDS011;69029;51.986;5.760;2023-05-23T08:43:45;7.65;;;2.03;;
69081;SDS011;69029;51.986;5.760;2023-05-23T08:46:11;11.05;;;2.40;;
69081;SDS011;69029;51.986;5.760;2023-05-23T08:48:37;11.85;;;2.53;;
69081;SDS011;69029;51.986;5.760;2023-05-23T08:51:04;5.15;;;1.42;;
69081;SDS011;69029;51.986;5.760;2023-05-23T08:53:33;11.30;;;2.00;;
69081;SDS011;69029;51.986;5.760;2023-05-23T08:56:02;8.18;;;2.10;;
69081;SDS011;69029;51.986;5.760;2023-05-23T08:58:31;12.15;;;2.28;;
69081;SDS011;69029;51.986;5.760;2023-05-23T09:00:58;11.40;;;2.30;;
69081;SDS011;69029;51.986;5.760;2023-05-23T09:03:27;9.52;;;2.30;;
69081;SDS011;69029;51.986;5.760;2023-05-23T09:05:53;11.23;;;2.17;;
69081;SDS011;69029;51.986;5.760;2023-05-23T09:08:20;13.18;;;2.55;;
69081;SDS011;69029;51.986;5.760;2023-05-23T09:10:49;9.77;;;2.10;;
69081;SDS011;69029;51.986;5.760;2023-05-23T09:13:15;10.77;;;2.40;;
69081;SDS011;69029;51.986;5.760;2023-05-23T09:16:02;15.00;;;2.85;;
69081;SDS011;69029;51.986;5.760;2023-05-23T09:18:32;13.23;;;2.58;;
69081;SDS011;69029;51.986;5.760;2023-05-23T09:21:00;14.02;;;2.25;;
69081;SDS011;69029;51.986;5.760;2023-05-23T09:23:28;9.55;;;2.20;;
69081;SDS011;69029;51.986;5.760;2023-05-23T09:26:01;13.18;;;2.55;;
69081;SDS011;69029;51.986;5.760;2023-05-23T09:28:31;12.98;;;2.25;;
69081;SDS011;69029;51.986;5.760;2023-05-23T09:30:58;12.23;;;2.58;;
69081;SDS011;69029;51.986;5.760;2023-05-23T09:33:28;11.88;;;2.20;;
69081;SDS011;69029;51.986;5.760;2023-05-23T09:35:59;14.27;;;2.63;;
69081;SDS011;69029;51.986;5.760;2023-05-23T09:38:25;12.38;;;2.55;;
69081;SDS011;69029;51.986;5.760;2023-05-23T09:40:53;14.38;;;2.65;;
69081;SDS011;69029;51.986;5.760;2023-05-23T09:43:20;12.75;;;2.10;;
69081;SDS011;69029;51.986;5.760;2023-05-23T09:45:46;11.13;;;1.98;;
69081;SDS011;69029;51.986;5.760;2023-05-23T09:48:11;14.15;;;2.45;;
69081;SDS011;69029;51.986;5.760;2023-05-23T09:50:39;14.95;;;2.92;;
69081;SDS011;69029;51.986;5.760;2023-05-23T09:53:05;11.90;;;2.50;;
69081;SDS011;69029;51.986;5.760;2023-05-23T09:55:31;11.13;;;2.67;;
69081;SDS011;69029;51.986;5.760;2023-05-23T09:57:57;9.55;;;2.08;;
69081;SDS011;69029;51.986;5.760;2023-05-23T10:00:24;14.75;;;2.30;;
69081;SDS011;69029;51.986;5.760;2023-05-23T10:03:09;12.32;;;2.55;;
69081;SDS011;69029;51.986;5.760;2023-05-23T10:05:45;12.60;;;2.42;;
69081;SDS011;69029;51.986;5.760;2023-05-23T10:08:16;16.63;;;3.03;;
69081;SDS011;69029;51.986;5.760;2023-05-23T10:13:26;16.55;;;3.05;;
69081;SDS011;69029;51.986;5.760;2023-05-23T10:15:59;16.67;;;2.80;;
69081;SDS011;69029;51.986;5.760;2023-05-23T10:18:34;14.00;;;2.53;;
69081;SDS011;69029;51.986;5.760;2023-05-23T10:21:08;11.45;;;2.28;;
69081;SDS011;69029;51.986;5.760;2023-05-23T10:23:36;13.75;;;2.42;;
69081;SDS011;69029;51.986;5.760;2023-05-23T10:26:03;13.85;;;2.58;;
69081;SDS011;69029;51.986;5.760;2023-05-23T10:28:29;10.60;;;2.60;;
69081;SDS011;69029;51.986;5.760;2023-05-23T10:30:56;10.48;;;2.20;;
69081;SDS011;69029;51.986;5.760;2023-05-23T10:33:23;13.10;;;2.60;;
69081;SDS011;69029;51.986;5.760;2023-05-23T10:35:57;9.75;;;2.47;;
69081;SDS011;69029;51.986;5.760;2023-05-23T10:38:31;6.35;;;1.85;;
69081;SDS011;69029;51.986;5.760;2023-05-23T10:43:48;7.90;;;2.10;;
69081;SDS011;69029;51.986;5.760;2023-05-23T10:46:53;11.20;;;2.60;;
69081;SDS011;69029;51.986;5.760;2023-05-23T10:49:36;11.27;;;2.30;;
69081;SDS011;69029;51.986;5.760;2023-05-23T10:52:06;12.52;;;2.90;;
69081;SDS011;69029;51.986;5.760;2023-05-23T10:54:42;9.45;;;2.60;;
69081;SDS011;69029;51.986;5.760;2023-05-23T10:57:35;16.20;;;2.75;;
69081;SDS011;69029;51.986;5.760;2023-05-23T11:00:00;11.55;;;2.63;;
69081;SDS011;69029;51.986;5.760;2023-05-23T11:02:26;11.50;;;2.95;;
69081;SDS011;69029;51.986;5.760;2023-05-23T11:07:41;15.02;;;3.00;;
69081;SDS011;69029;51.986;5.760;2023-05-23T11:12:40;13.07;;;2.60;;
69081;SDS011;69029;51.986;5.760;2023-05-23T11:17:51;8.05;;;2.60;;
69081;SDS011;69029;51.986;5.760;2023-05-23T11:20:18;9.10;;;2.45;;
69081;SDS011;69029;51.986;5.760;2023-05-23T11:22:54;11.57;;;2.70;;
69081;SDS011;69029;51.986;5.760;2023-05-23T11:25:41;8.13;;;2.30;;
69081;SDS011;69029;51.986;5.760;2023-05-23T11:28:12;10.35;;;2.50;;
69081;SDS011;69029;51.986;5.760;2023-05-23T11:30:38;8.55;;;2.13;;
69081;SDS011;69029;51.986;5.760;2023-05-23T11:33:05;7.90;;;2.20;;
69081;SDS011;69029;51.986;5.760;2023-05-23T11:38:08;9.10;;;2.35;;
69081;SDS011;69029;51.986;5.760;2023-05-23T11:43:05;9.25;;;2.05;;
69081;SDS011;69029;51.986;5.760;2023-05-23T11:45:32;13.27;;;2.30;;
69081;SDS011;69029;51.986;5.760;2023-05-23T11:48:03;9.77;;;2.25;;
69081;SDS011;69029;51.986;5.760;2023-05-23T11:50:33;9.05;;;2.10;;
69081;SDS011;69029;51.986;5.760;2023-05-23T11:53:07;9.10;;;2.28;;
69081;SDS011;69029;51.986;5.760;2023-05-23T11:55:32;9.93;;;2.40;;
69081;SDS011;69029;51.986;5.760;2023-05-23T11:57:59;8.60;;;2.17;;
69081;SDS011;69029;51.986;5.760;2023-05-23T12:00:24;8.73;;;1.80;;
69081;SDS011;69029;51.986;5.760;2023-05-23T12:02:50;13.10;;;2.28;;
69081;SDS011;69029;51.986;5.760;2023-05-23T12:05:16;11.57;;;2.30;;
69081;SDS011;69029;51.986;5.760;2023-05-23T12:07:43;16.98;;;2.50;;
69081;SDS011;69029;51.986;5.760;2023-05-23T12:10:11;11.45;;;2.60;;
69081;SDS011;69029;51.986;5.760;2023-05-23T12:12:37;10.43;;;2.25;;
69081;SDS011;69029;51.986;5.760;2023-05-23T12:15:04;8.07;;;2.10;;
69081;SDS011;69029;51.986;5.760;2023-05-23T12:17:30;7.43;;;2.05;;
69081;SDS011;69029;51.986;5.760;2023-05-23T12:19:57;11.20;;;1.90;;
69081;SDS011;69029;51.986;5.760;2023-05-23T12:22:23;10.23;;;2.10;;
69081;SDS011;69029;51.986;5.760;2023-05-23T12:24:51;8.10;;;1.95;;
69081;SDS011;69029;51.986;5.760;2023-05-23T12:27:19;9.77;;;2.00;;
69081;SDS011;69029;51.986;5.760;2023-05-23T12:29:54;7.65;;;2.00;;
69081;SDS011;69029;51.986;5.760;2023-05-23T12:32:33;10.88;;;2.13;;
69081;SDS011;69029;51.986;5.760;2023-05-23T12:34:59;8.27;;;1.90;;
69081;SDS011;69029;51.986;5.760;2023-05-23T12:37:25;7.93;;;2.00;;
69081;SDS011;69029;51.986;5.760;2023-05-23T12:39:51;8.15;;;1.83;;
69081;SDS011;69029;51.986;5.760;2023-05-23T12:42:16;6.72;;;2.17;;
69081;SDS011;69029;51.986;5.760;2023-05-23T12:44:45;10.45;;;1.85;;
69081;SDS011;69029;51.986;5.760;2023-05-23T12:47:15;9.38;;;2.20;;
69081;SDS011;69029;51.986;5.760;2023-05-23T12:49:41;15.50;;;2.47;;
69081;SDS011;69029;51.986;5.760;2023-05-23T12:52:08;8.10;;;1.95;;
69081;SDS011;69029;51.986;5.760;2023-05-23T12:54:34;15.50;;;2.22;;
69081;SDS011;69029;51.986;5.760;2023-05-23T12:57:00;9.23;;;2.10;;
69081;SDS011;69029;51.986;5.760;2023-05-23T12:59:25;8.13;;;2.28;;
69081;SDS011;69029;51.986;5.760;2023-05-23T13:01:51;12.65;;;2.22;;
69081;SDS011;69029;51.986;5.760;2023-05-23T13:04:16;8.10;;;2.17;;
69081;SDS011;69029;51.986;5.760;2023-05-23T13:06:44;11.48;;;2.20;;
69081;SDS011;69029;51.986;5.760;2023-05-23T13:09:10;11.50;;;2.00;;
69081;SDS011;69029;51.986;5.760;2023-05-23T13:11:36;10.57;;;2.70;;
69081;SDS011;69029;51.986;5.760;2023-05-23T13:14:01;11.85;;;2.35;;
69081;SDS011;69029;51.986;5.760;2023-05-23T13:16:27;9.15;;;2.50;;
69081;SDS011;69029;51.986;5.760;2023-05-23T13:18:53;9.73;;;2.10;;
69081;SDS011;69029;51.986;5.760;2023-05-23T13:21:18;14.45;;;2.42;;
69081;SDS011;69029;51.986;5.760;2023-05-23T13:23:44;12.50;;;2.35;;
69081;SDS011;69029;51.986;5.760;2023-05-23T13:26:10;7.00;;;2.22;;
69081;SDS011;69029;51.986;5.760;2023-05-23T13:28:36;9.55;;;2.50;;
69081;SDS011;69029;51.986;5.760;2023-05-23T13:31:01;10.75;;;2.45;;
69081;SDS011;69029;51.986;5.760;2023-05-23T13:33:27;9.65;;;2.15;;
69081;SDS011;69029;51.986;5.760;2023-05-23T13:35:53;12.35;;;2.47;;
69081;SDS011;69029;51.986;5.760;2023-05-23T13:38:19;19.88;;;2.63;;
69081;SDS011;69029;51.986;5.760;2023-05-23T13:40:47;11.45;;;2.40;;
69081;SDS011;69029;51.986;5.760;2023-05-23T13:43:12;13.18;;;2.88;;
69081;SDS011;69029;51.986;5.760;2023-05-23T13:45:38;16.67;;;2.47;;
69081;SDS011;69029;51.986;5.760;2023-05-23T13:48:04;21.33;;;2.67;;
69081;SDS011;69029;51.986;5.760;2023-05-23T13:50:29;42.28;;;2.83;;
69081;SDS011;69029;51.986;5.760;2023-05-23T13:52:55;12.63;;;1.92;;
69081;SDS011;69029;51.986;5.760;2023-05-23T13:55:22;23.40;;;2.40;;
69081;SDS011;69029;51.986;5.760;2023-05-23T13:57:51;11.15;;;2.10;;
69081;SDS011;69029;51.986;5.760;2023-05-23T14:00:16;12.77;;;2.15;;
69081;SDS011;69029;51.986;5.760;2023-05-23T14:02:42;14.63;;;2.38;;
69081;SDS011;69029;51.986;5.760;2023-05-23T14:05:07;12.05;;;2.40;;
69081;SDS011;69029;51.986;5.760;2023-05-23T14:07:33;7.22;;;2.08;;
69081;SDS011;69029;51.986;5.760;2023-05-23T14:09:59;9.75;;;2.30;;
69081;SDS011;69029;51.986;5.760;2023-05-23T14:12:24;10.52;;;2.40;;
69081;SDS011;69029;51.986;5.760;2023-05-23T14:14:50;10.65;;;2.33;;
69081;SDS011;69029;51.986;5.760;2023-05-23T14:17:16;15.57;;;2.15;;
69081;SDS011;69029;51.986;5.760;2023-05-23T14:19:42;17.15;;;2.25;;
69081;SDS011;69029;51.986;5.760;2023-05-23T14:22:08;11.73;;;2.53;;
69081;SDS011;69029;51.986;5.760;2023-05-23T14:24:33;11.27;;;2.40;;
69081;SDS011;69029;51.986;5.760;2023-05-23T14:26:59;12.60;;;2.30;;
69081;SDS011;69029;51.986;5.760;2023-05-23T14:29:26;9.68;;;2.50;;
69081;SDS011;69029;51.986;5.760;2023-05-23T14:31:52;10.23;;;2.20;;
69081;SDS011;69029;51.986;5.760;2023-05-23T14:34:18;13.05;;;2.60;;
69081;SDS011;69029;51.986;5.760;2023-05-23T14:36:45;9.65;;;2.40;;
69081;SDS011;69029;51.986;5.760;2023-05-23T14:39:10;13.55;;;2.00;;
69081;SDS011;69029;51.986;5.760;2023-05-23T14:41:36;6.72;;;1.95;;
69081;SDS011;69029;51.986;5.760;2023-05-23T14:44:02;10.18;;;2.33;;
69081;SDS011;69029;51.986;5.760;2023-05-23T14:46:28;8.98;;;2.58;;
69081;SDS011;69029;51.986;5.760;2023-05-23T14:48:53;7.28;;;2.20;;
69081;SDS011;69029;51.986;5.760;2023-05-23T14:51:19;10.73;;;2.35;;
69081;SDS011;69029;51.986;5.760;2023-05-23T14:53:45;9.43;;;2.17;;
69081;SDS011;69029;51.986;5.760;2023-05-23T14:56:11;9.30;;;2.35;;
69081;SDS011;69029;51.986;5.760;2023-05-23T14:58:36;10.43;;;2.00;;
69081;SDS011;69029;51.986;5.760;2023-05-23T15:01:04;10.63;;;2.30;;
69081;SDS011;69029;51.986;5.760;2023-05-23T15:03:30;10.43;;;2.05;;
69081;SDS011;69029;51.986;5.760;2023-05-23T15:05:55;8.05;;;1.92;;